createdAt,value
2022-12-29T00:02:25.295Z,102333.88
2022-12-29T00:07:21.240Z,102314.28
2022-12-29T00:12:15.898Z,102363.91
2022-12-29T00:17:09.549Z,102320.47
2022-12-29T00:22:20.118Z,102347.00
2022-12-29T00:27:33.063Z,102265.91
2022-12-29T00:32:43.952Z,102372.69
2022-12-29T00:37:55.302Z,102368.41
2022-12-29T00:43:07.539Z,102274.47
2022-12-29T00:48:00.843Z,102365.03
2022-12-29T00:52:56.849Z,102366.75
2022-12-29T00:57:51.493Z,102284.75
2022-12-29T01:02:44.891Z,102324.88
2022-12-29T01:07:38.232Z,102305.25
2022-12-29T01:12:43.052Z,102354.78
2022-12-29T01:17:41.451Z,102319.72
2022-12-29T01:22:34.690Z,102251.44
2022-12-29T01:27:28.407Z,102295.81
2022-12-29T01:32:21.615Z,102332.59
2022-12-29T01:37:16.262Z,102328.28
2022-12-29T01:42:18.483Z,102323.22
2022-12-29T01:47:12.163Z,102278.84
2022-12-29T01:52:09.012Z,102279.69
2022-12-29T01:57:08.996Z,102141.34
2022-12-29T02:02:02.790Z,102301.06
2022-12-29T02:06:59.438Z,102264.34
2022-12-29T02:11:53.205Z,102294.25
2022-12-29T02:17:04.323Z,102291.69
2022-12-29T02:22:09.876Z,102299.38
2022-12-29T02:27:21.930Z,102296.81
2022-12-29T02:32:27.339Z,102271.16
2022-12-29T02:37:27.675Z,102284.00
2022-12-29T02:42:29.237Z,102274.63
2022-12-29T02:47:33.325Z,102272.03
2022-12-29T02:52:32.549Z,102274.59
2022-12-29T02:57:34.482Z,102222.47
2022-12-29T03:02:41.836Z,102277.16
2022-12-29T03:07:43.505Z,102179.69
2022-12-29T03:13:03.111Z,102247.22
2022-12-29T03:18:02.385Z,102209.63
2022-12-29T03:23:01.723Z,102244.66
2022-12-29T03:28:00.915Z,102252.31
2022-12-29T03:33:00.963Z,102217.28
2022-12-29T03:38:03.213Z,102267.69
2022-12-29T03:42:57.496Z,102288.22
2022-12-29T03:47:51.017Z,102279.66
2022-12-29T03:52:46.803Z,102282.22
2022-12-29T03:57:40.238Z,102271.97
2022-12-29T04:02:35.972Z,102246.31
2022-12-29T04:07:29.847Z,102293.34
2022-12-29T04:12:25.696Z,102300.16
2022-12-29T04:17:19.081Z,102277.09
2022-12-29T04:22:14.910Z,102283.94
2022-12-29T04:27:08.309Z,102209.53
2022-12-29T04:32:17.167Z,102249.69
2022-12-29T04:37:15.780Z,102290.72
2022-12-29T04:42:09.098Z,102293.28
2022-12-29T04:47:02.381Z,102262.47
2022-12-29T04:52:09.443Z,102315.50
2022-12-29T04:57:04.091Z,102229.97
2022-12-29T05:01:57.820Z,102318.06
2022-12-29T05:06:51.220Z,102323.19
2022-12-29T05:11:46.326Z,102290.69
2022-12-29T05:16:39.854Z,102328.25
2022-12-29T05:21:33.115Z,102330.78
2022-12-29T05:26:27.418Z,102281.13
2022-12-29T05:31:37.235Z,102297.41
2022-12-29T05:36:37.460Z,102279.44
2022-12-29T05:41:31.623Z,102261.50
2022-12-29T05:46:58.324Z,102316.28
2022-12-29T05:52:15.627Z,102281.22
2022-12-29T05:57:09.105Z,102310.31
2022-12-29T06:02:04.725Z,102241.91
2022-12-29T06:06:58.422Z,102315.41
2022-12-29T06:12:02.147Z,102304.28
2022-12-29T06:16:56.286Z,102121.31
2022-12-29T06:21:53.603Z,102258.09
2022-12-29T06:26:47.282Z,102311.94
2022-12-29T06:31:40.651Z,102317.06
2022-12-29T06:36:34.012Z,102274.25
2022-12-29T06:41:32.375Z,102330.72
2022-12-29T06:46:42.993Z,102314.50
2022-12-29T06:51:39.230Z,102342.75
2022-12-29T06:56:33.835Z,102348.75
2022-12-29T07:01:29.385Z,102362.44
2022-12-29T07:06:23.552Z,102334.25
2022-12-29T07:11:16.985Z,102347.97
2022-12-29T07:16:14.525Z,102189.84
2022-12-29T07:21:07.873Z,102366.84
2022-12-29T07:26:05.414Z,102328.38
2022-12-29T07:30:58.737Z,102335.25
2022-12-29T07:35:53.689Z,102336.13
2022-12-29T07:40:48.912Z,102325.84
2022-12-29T07:45:42.180Z,102290.84
2022-12-29T07:50:35.871Z,102333.56
2022-12-29T07:55:30.646Z,102264.34
2022-12-29T08:00:24.440Z,102355.72
2022-12-29T08:05:18.757Z,102347.13
2022-12-29T08:10:15.876Z,102365.00
2022-12-29T08:15:12.480Z,102297.47
2022-12-29T08:20:07.059Z,102366.53
2022-12-29T08:25:00.326Z,102363.78
2022-12-29T08:29:53.729Z,102363.53
2022-12-29T08:34:48.502Z,102272.81
2022-12-29T08:39:41.708Z,102277.59
2022-12-29T08:44:34.891Z,102301.06
2022-12-29T08:49:28.268Z,102305.03
2022-12-29T08:54:23.048Z,102344.75
2022-12-29T08:59:16.364Z,102294.94
2022-12-29T09:04:15.524Z,102282.56
2022-12-29T09:09:10.638Z,102285.91
2022-12-29T09:14:05.907Z,102299.03
2022-12-29T09:18:59.361Z,102321.75
2022-12-29T09:23:53.073Z,102280.63
2022-12-29T09:28:48.890Z,102239.78
2022-12-29T09:33:43.616Z,102307.00
2022-12-29T09:38:37.060Z,102213.25
2022-12-29T09:43:49.394Z,102244.53
2022-12-29T09:48:49.529Z,102290.34
2022-12-29T09:53:48.252Z,102278.69
2022-12-29T09:58:49.101Z,102177.97
2022-12-29T10:03:56.907Z,102133.16
2022-12-29T10:08:55.165Z,102239.03
2022-12-29T10:14:03.069Z,102227.13
2022-12-29T10:19:20.289Z,102267.00
2022-12-29T10:24:15.151Z,102238.09
2022-12-29T10:29:13.801Z,102191.84
2022-12-29T10:34:20.843Z,102152.94
2022-12-29T10:39:18.949Z,102245.47
2022-12-29T10:44:17.152Z,102171.38
2022-12-29T10:49:22.214Z,102233.78
2022-12-29T10:54:23.960Z,102125.78
2022-12-29T10:59:22.843Z,102161.03
2022-12-29T11:04:32.951Z,102157.75
2022-12-29T11:09:41.928Z,102229.50
2022-12-29T11:14:36.771Z,102210.34
2022-12-29T11:19:40.743Z,102154.66
2022-12-29T11:24:34.348Z,102115.97
2022-12-29T11:29:30.309Z,102166.75
2022-12-29T11:34:26.882Z,102198.00
2022-12-29T11:39:37.054Z,102181.78
2022-12-29T11:44:42.311Z,102105.75
2022-12-29T11:49:35.635Z,102087.41
2022-12-29T11:54:35.649Z,102060.88
2022-12-29T11:59:56.127Z,102151.22
2022-12-29T12:04:53.435Z,102171.44
2022-12-29T12:09:59.069Z,102174.31
2022-12-29T12:15:00.521Z,102166.19
2022-12-29T12:20:20.368Z,102162.22
2022-12-29T12:25:20.327Z,102156.53
2022-12-29T12:30:19.802Z,102150.06
2022-12-29T12:35:21.347Z,102156.94
2022-12-29T12:41:00.267Z,102056.81
2022-12-29T12:46:22.727Z,102145.78
2022-12-29T12:51:23.058Z,102110.06
2022-12-29T12:56:39.122Z,102061.91
2022-12-29T13:01:41.329Z,102022.28
2022-12-29T13:06:42.576Z,102140.91
2022-12-29T13:11:55.506Z,102101.19
2022-12-29T13:16:56.369Z,102062.97
2022-12-29T13:22:06.989Z,102110.50
2022-12-29T13:27:11.803Z,102143.56
2022-12-29T13:32:24.289Z,102141.00
2022-12-29T13:37:21.118Z,102046.25
2022-12-29T13:42:16.369Z,102131.13
2022-12-29T13:47:26.777Z,102128.81
2022-12-29T13:52:30.730Z,102127.22
2022-12-29T13:57:37.345Z,102100.38
2022-12-29T14:02:44.944Z,102097.94
2022-12-29T14:07:44.020Z,102077.84
2022-12-29T14:12:42.242Z,102136.78
2022-12-29T14:17:37.433Z,102122.78
2022-12-29T14:22:33.499Z,102108.69
2022-12-29T14:27:54.516Z,102083.47
2022-12-29T14:33:04.315Z,102063.69
2022-12-29T14:38:17.037Z,102073.47
2022-12-29T14:43:20.955Z,102135.84
2022-12-29T14:48:47.420Z,102140.53
2022-12-29T14:53:47.115Z,102122.09
2022-12-29T14:58:48.701Z,102138.31
2022-12-29T15:03:47.829Z,102084.34
2022-12-29T15:08:48.899Z,102087.88
2022-12-29T15:13:45.382Z,101981.53
2022-12-29T15:18:40.415Z,102128.66
2022-12-29T15:23:43.853Z,101975.63
2022-12-29T15:28:44.610Z,102048.75
2022-12-29T15:33:42.599Z,102134.09
2022-12-29T15:38:42.275Z,102020.69
2022-12-29T15:44:00.383Z,101946.28
2022-12-29T15:48:53.675Z,102139.38
2022-12-29T15:53:52.551Z,101872.09
2022-12-29T15:58:48.710Z,102042.88
2022-12-29T16:03:44.158Z,102128.81
2022-12-29T16:08:42.202Z,102086.44
2022-12-29T16:13:47.306Z,101986.34
2022-12-29T16:18:40.690Z,102116.34
2022-12-29T16:23:41.533Z,102012.06
2022-12-29T16:28:43.224Z,102025.88
2022-12-29T16:33:42.496Z,102113.53
2022-12-29T16:38:37.244Z,101938.66
2022-12-29T16:43:35.371Z,102117.31
2022-12-29T16:48:30.488Z,102102.38
2022-12-29T16:53:28.352Z,102078.69
2022-12-29T16:58:26.513Z,102081.31
2022-12-29T17:03:20.000Z,102097.44
2022-12-29T17:08:24.038Z,102031.13
2022-12-29T17:13:17.562Z,102075.25
2022-12-29T17:18:14.046Z,102048.66
2022-12-29T17:23:19.884Z,102091.13
2022-12-29T17:28:23.413Z,102100.78
2022-12-29T17:33:20.254Z,102074.59
2022-12-29T17:38:29.153Z,102051.81
2022-12-29T17:43:22.559Z,102082.63
2022-12-29T17:48:19.726Z,102074.34
2022-12-29T17:53:17.672Z,102032.00
2022-12-29T17:58:18.402Z,102074.69
2022-12-29T18:03:16.432Z,102010.16
2022-12-29T18:08:13.454Z,102095.19
2022-12-29T18:13:11.714Z,102104.72
2022-12-29T18:18:12.299Z,102108.16
2022-12-29T18:23:06.170Z,101986.81
2022-12-29T18:28:00.933Z,102098.13
2022-12-29T18:33:00.297Z,102076.94
2022-12-29T18:37:53.641Z,102094.88
2022-12-29T18:42:47.216Z,102105.22
2022-12-29T18:47:41.873Z,102113.03
2022-12-29T18:52:35.253Z,102109.63
2022-12-29T18:57:30.734Z,102104.53
2022-12-29T19:02:25.838Z,102099.50
2022-12-29T19:07:20.456Z,102115.88
2022-12-29T19:12:16.955Z,102100.66
2022-12-29T19:17:12.473Z,102049.66
2022-12-29T19:22:05.721Z,102115.28
2022-12-29T19:27:01.479Z,102046.50
2022-12-29T19:31:55.766Z,102094.94
2022-12-29T19:36:49.130Z,102079.63
2022-12-29T19:41:45.293Z,102070.28
2022-12-29T19:46:40.049Z,102102.59
2022-12-29T19:51:33.666Z,102105.25
2022-12-29T19:56:26.954Z,102095.03
2022-12-29T20:01:24.209Z,102079.16
2022-12-29T20:06:19.944Z,102063.94
2022-12-29T20:11:15.563Z,102096.38
2022-12-29T20:16:13.122Z,102084.47
2022-12-29T20:21:07.754Z,102059.78
2022-12-29T20:26:03.073Z,102068.25
2022-12-29T20:30:59.377Z,101941.50
2022-12-29T20:35:52.963Z,102080.34
2022-12-29T20:40:47.673Z,101911.78
2022-12-29T20:45:45.252Z,102071.88
2022-12-29T20:50:40.954Z,102067.63
2022-12-29T20:55:40.918Z,101994.44
2022-12-29T21:00:37.616Z,102077.06
2022-12-29T21:05:34.836Z,102054.84
2022-12-29T21:10:28.261Z,102077.00
2022-12-29T21:15:34.655Z,102024.19
2022-12-29T21:20:39.795Z,101981.75
2022-12-29T21:25:38.039Z,102070.38
2022-12-29T21:30:33.049Z,102065.28
2022-12-29T21:35:26.708Z,102084.03
2022-12-29T21:40:35.672Z,102043.22
2022-12-29T21:45:31.055Z,102076.38
2022-12-29T21:50:24.290Z,102031.28
2022-12-29T21:55:17.576Z,102027.88
2022-12-29T22:00:31.125Z,101962.31
2022-12-29T22:05:43.225Z,102015.94
2022-12-29T22:10:58.415Z,102037.13
2022-12-29T22:15:53.148Z,102056.59
2022-12-29T22:20:46.548Z,101933.81
2022-12-29T22:25:43.674Z,102005.13
2022-12-29T22:30:37.486Z,101981.88
2022-12-29T22:35:32.292Z,102023.53
2022-12-29T22:40:25.826Z,101992.16
2022-12-29T22:45:19.329Z,102023.84
2022-12-29T22:50:15.749Z,101995.06
2022-12-29T22:55:10.996Z,101923.66
2022-12-29T23:00:06.174Z,102014.78
2022-12-29T23:05:03.574Z,102007.19
2022-12-29T23:09:57.536Z,101988.34
2022-12-29T23:14:52.772Z,101991.47
2022-12-29T23:19:46.049Z,101968.38
2022-12-29T23:24:39.363Z,101954.13
2022-12-29T23:29:32.725Z,101982.28
2022-12-29T23:34:27.638Z,101967.78
2022-12-29T23:39:24.512Z,102008.56
2022-12-29T23:44:17.787Z,101972.78
2022-12-29T23:49:11.172Z,101982.13
2022-12-29T23:54:06.443Z,101960.91
2022-12-29T23:58:59.669Z,101972.88
